Honolulu, HI (96821)

1:54 PM HST on July 30, 2016 (GMT -1000)
Hawaii Loa Ridge | | Change Station

Elev 750 ft 21.29 °N, 157.75 °W | Updated 164 days ago

Partly Cloudy
Partly Cloudy
78 °F
Feels Like 78 °F
N
14
Wind Variable Wind from NE
Gusts mph

Today
High -- | Low -- °F
--% Chance of Precip.
Yesterday
High -- | Low -- °F
Precip. -- in
Pressure 29.98 in
Visibility 10.0 miles
Clouds Few 2800 ft
Scattered Clouds 3900 ft
Scattered Clouds 4800 ft
Dew Point 66 °F
Humidity 67%
Rainfall in
Snow Depth Not available.
6:04 AM 7:10 PM
Waning Crescent, 10% visible
METAR PHNL 302253Z 05015G26KT 10SM FEW028 SCT039 SCT048 31/19 A2997 RMK AO2 PK WND 05026/2249 SLP150 T03060194
Pressure 29.98 in
Visibility 10.0 miles
Clouds Few 2800 ft
Scattered Clouds 3900 ft
Scattered Clouds 4800 ft
Dew Point 66 °F
Humidity 67%
Rainfall in
Snow Depth Not available.
6:04 AM 7:10 PM
Waning Crescent, 10% visible
METAR PHNL 302253Z 05015G26KT 10SM FEW028 SCT039 SCT048 31/19 A2997 RMK AO2 PK WND 05026/2249 SLP150 T03060194

10-Day Weather Forecast

Almanac

Astronomy

Jul. 30, 2016 Rise Set
Actual Time
Civil Twilight
Nautical Twilight
Astronomical Twilight
Moon
Length of Visible Light
Length of Day
Tomorrow will be .
, % of the Moon is Illuminated

Today's Extremes

State Highs State Lows

Community

WunderPhotos

Upload Photos

1,928,680 photos uploaded!

WunderBlog® & News

Nearby

Air Quality

  Air Quality AQ Index Pollutant
Not available.

Snow Depth

Station Depth Elevation

Earthquake Activity

City Distance Mag. Time & Date
Minimum magnitude displayed is 2.5.

Coastal Water Temperatures

Place Temperature

Stations

Nearby Weather Stations

Station Location Temp. Windchill Dew Point Humidity Wind Precip. Elev Updated Type
                   

Watches & Warnings

There are currently no watches in effect.